createdAt,value
2018-09-26T00:03:15.254Z,3.43
2018-09-26T00:05:43.848Z,3.40
2018-09-26T00:08:12.513Z,2.93
2018-09-26T00:10:41.151Z,3.50
2018-09-26T00:13:09.756Z,3.30
2018-09-26T00:15:38.491Z,3.33
2018-09-26T00:18:07.146Z,3.33
2018-09-26T00:20:35.832Z,3.30
2018-09-26T00:23:04.549Z,3.77
2018-09-26T00:25:33.368Z,3.23
2018-09-26T00:28:02.015Z,3.80
2018-09-26T00:30:30.648Z,3.00
2018-09-26T00:32:59.441Z,3.67
2018-09-26T00:35:28.149Z,3.13
2018-09-26T00:37:56.964Z,3.90
2018-09-26T00:40:25.756Z,3.20
2018-09-26T00:42:54.523Z,3.37
2018-09-26T00:45:23.101Z,3.33
2018-09-26T00:47:51.789Z,3.60
2018-09-26T00:50:20.603Z,3.33
2018-09-26T00:52:49.334Z,3.30
2018-09-26T00:55:17.980Z,3.00
2018-09-26T00:57:46.856Z,3.20
2018-09-26T01:00:15.336Z,2.70
2018-09-26T01:02:44.161Z,3.17
2018-09-26T01:05:12.877Z,3.50
2018-09-26T01:07:41.823Z,3.00
2018-09-26T01:10:10.524Z,3.07
2018-09-26T01:12:39.465Z,3.60
2018-09-26T01:15:08.361Z,2.67
2018-09-26T01:17:36.970Z,3.70
2018-09-26T01:20:05.734Z,3.23
2018-09-26T01:22:34.316Z,3.50
2018-09-26T01:25:02.976Z,3.10
2018-09-26T01:27:34.306Z,3.10
2018-09-26T01:30:04.879Z,3.17
2018-09-26T01:32:33.548Z,3.10
2018-09-26T01:35:02.528Z,3.13
2018-09-26T01:37:31.100Z,2.90
2018-09-26T01:40:00.280Z,3.30
2018-09-26T01:42:29.102Z,2.93
2018-09-26T01:44:57.684Z,2.80
2018-09-26T01:47:26.304Z,3.10
2018-09-26T01:49:54.874Z,2.70
2018-09-26T01:52:23.447Z,3.03
2018-09-26T01:54:52.058Z,3.30
2018-09-26T01:57:20.728Z,2.97
2018-09-26T01:59:49.409Z,2.80
2018-09-26T02:02:18.013Z,2.90
2018-09-26T02:04:46.679Z,3.20
2018-09-26T02:07:15.286Z,3.07
2018-09-26T02:09:43.802Z,2.87
2018-09-26T02:12:12.598Z,3.00
2018-09-26T02:14:41.236Z,3.20
2018-09-26T02:17:09.692Z,2.50
2018-09-26T02:19:38.246Z,3.20
2018-09-26T02:22:06.778Z,2.90
2018-09-26T02:24:35.426Z,3.10
2018-09-26T02:27:04.025Z,3.10
2018-09-26T02:29:32.713Z,3.10
2018-09-26T02:32:01.376Z,2.87
2018-09-26T02:34:29.980Z,2.27
2018-09-26T02:36:58.518Z,2.70
2018-09-26T02:39:27.275Z,2.80
2018-09-26T02:41:55.828Z,3.53
2018-09-26T02:44:24.513Z,2.60
2018-09-26T02:46:53.044Z,2.93
2018-09-26T02:49:21.524Z,3.07
2018-09-26T02:51:50.075Z,3.20
2018-09-26T02:54:18.588Z,2.80
2018-09-26T02:56:47.172Z,3.10
2018-09-26T02:59:15.787Z,2.53
2018-09-26T03:01:44.341Z,2.33
2018-09-26T03:04:13.021Z,2.30
2018-09-26T03:06:41.716Z,1.40
2018-09-26T03:09:11.050Z,2.13
2018-09-26T03:11:39.844Z,2.50
2018-09-26T03:14:08.401Z,2.73
2018-09-26T03:16:37.094Z,2.40
2018-09-26T03:19:05.704Z,1.93
2018-09-26T03:21:34.342Z,2.33
2018-09-26T03:24:02.940Z,1.93
2018-09-26T03:26:31.558Z,3.00
2018-09-26T03:29:00.095Z,2.40
2018-09-26T03:31:28.662Z,2.70
2018-09-26T03:33:57.644Z,2.40
2018-09-26T03:36:26.221Z,2.70
2018-09-26T03:38:54.796Z,2.40
2018-09-26T03:41:23.352Z,2.80
2018-09-26T03:43:51.993Z,3.10
2018-09-26T03:46:20.711Z,2.50
2018-09-26T03:48:49.374Z,2.53
2018-09-26T03:51:17.952Z,2.47
2018-09-26T03:53:46.547Z,2.20
2018-09-26T03:56:15.097Z,2.33
2018-09-26T03:58:44.011Z,1.80
2018-09-26T04:01:12.600Z,3.30
2018-09-26T04:03:41.196Z,2.07
2018-09-26T04:06:09.860Z,2.40
2018-09-26T04:08:38.409Z,2.07
2018-09-26T04:11:07.242Z,2.20
2018-09-26T04:13:35.836Z,2.43
2018-09-26T04:16:04.565Z,2.10
2018-09-26T04:18:33.143Z,1.60
2018-09-26T04:21:01.801Z,2.10
2018-09-26T04:23:30.358Z,1.90
2018-09-26T04:25:58.992Z,2.77
2018-09-26T04:28:27.557Z,2.10
2018-09-26T04:30:56.301Z,2.90
2018-09-26T04:33:24.954Z,2.40
2018-09-26T04:35:53.553Z,2.23
2018-09-26T04:38:22.154Z,2.43
2018-09-26T04:40:50.834Z,1.90
2018-09-26T04:43:19.391Z,2.20
2018-09-26T04:45:47.944Z,2.17
2018-09-26T04:48:16.641Z,2.40
2018-09-26T04:50:45.326Z,2.20
2018-09-26T04:53:13.818Z,1.83
2018-09-26T04:55:42.424Z,2.27
2018-09-26T04:58:10.956Z,2.23
2018-09-26T05:00:39.532Z,2.07
2018-09-26T05:03:08.148Z,1.80
2018-09-26T05:05:36.877Z,2.30
2018-09-26T05:08:05.563Z,2.17
2018-09-26T05:10:34.184Z,2.10
2018-09-26T05:13:02.765Z,2.17
2018-09-26T05:15:31.282Z,1.70
2018-09-26T05:17:59.868Z,1.43
2018-09-26T05:20:28.409Z,1.70
2018-09-26T05:22:57.300Z,1.40
2018-09-26T05:25:25.951Z,1.80
2018-09-26T05:27:54.655Z,1.97
2018-09-26T05:30:23.349Z,1.33
2018-09-26T05:32:51.943Z,1.77
2018-09-26T05:35:20.594Z,2.27
2018-09-26T05:37:49.332Z,1.57
2018-09-26T05:40:17.977Z,1.47
2018-09-26T05:42:46.567Z,1.40
2018-09-26T05:45:15.133Z,1.30
2018-09-26T05:47:43.943Z,1.87
2018-09-26T05:50:12.733Z,1.80
2018-09-26T05:52:41.669Z,1.93
2018-09-26T05:55:10.773Z,1.13
2018-09-26T05:57:39.895Z,1.83
2018-09-26T06:00:09.147Z,1.60
2018-09-26T06:02:38.480Z,2.00
2018-09-26T06:05:07.642Z,1.57
2018-09-26T06:07:38.214Z,1.60
2018-09-26T06:10:07.289Z,1.37
2018-09-26T06:12:37.644Z,1.37
2018-09-26T06:15:06.766Z,1.53
2018-09-26T06:17:36.063Z,1.37
2018-09-26T06:20:05.263Z,1.67
2018-09-26T06:22:34.299Z,1.80
2018-09-26T06:25:03.554Z,1.60
2018-09-26T06:27:34.546Z,1.53
2018-09-26T06:30:03.802Z,1.20
2018-09-26T06:32:33.262Z,1.60
2018-09-26T06:35:08.294Z,1.37
2018-09-26T06:37:53.801Z,1.37
2018-09-26T06:40:22.470Z,1.40
2018-09-26T06:43:01.314Z,1.57
2018-09-26T06:45:29.923Z,1.57
2018-09-26T06:47:58.510Z,1.27
2018-09-26T06:50:27.169Z,1.30
2018-09-26T06:53:03.740Z,1.37
2018-09-26T06:55:38.624Z,1.30
2018-09-26T06:58:07.254Z,1.10
2018-09-26T07:00:35.867Z,1.33
2018-09-26T07:03:05.061Z,1.27
2018-09-26T07:05:33.566Z,1.17
2018-09-26T07:08:02.374Z,1.30
2018-09-26T07:10:30.873Z,1.60
2018-09-26T07:12:59.762Z,1.40
2018-09-26T07:15:28.258Z,1.20
2018-09-26T07:17:56.798Z,0.97
2018-09-26T07:20:25.376Z,1.17
2018-09-26T07:22:54.046Z,0.93
2018-09-26T07:25:22.706Z,1.07
2018-09-26T07:27:51.366Z,1.10
2018-09-26T07:30:19.920Z,1.40
2018-09-26T07:32:48.563Z,1.00
2018-09-26T07:35:17.188Z,1.20
2018-09-26T07:37:45.839Z,1.13
2018-09-26T07:40:14.396Z,1.27
2018-09-26T07:42:42.933Z,1.30
2018-09-26T07:45:19.258Z,1.20
2018-09-26T07:47:48.520Z,1.80
2018-09-26T07:50:17.054Z,1.87
2018-09-26T07:52:45.940Z,1.70
2018-09-26T07:55:14.585Z,1.60
2018-09-26T07:57:43.180Z,1.63
2018-09-26T08:00:11.732Z,1.50
2018-09-26T08:02:40.313Z,1.20
2018-09-26T08:05:09.613Z,1.30
2018-09-26T08:07:38.316Z,1.20
2018-09-26T08:10:06.952Z,1.27
2018-09-26T08:12:35.651Z,1.30
2018-09-26T08:15:04.299Z,1.40
2018-09-26T08:17:32.933Z,1.33
2018-09-26T08:20:01.690Z,1.40
2018-09-26T08:22:30.468Z,1.20
2018-09-26T08:24:59.003Z,1.33
2018-09-26T08:27:27.586Z,1.13
2018-09-26T08:29:56.210Z,1.13
2018-09-26T08:32:24.711Z,1.10
2018-09-26T08:34:53.222Z,1.20
2018-09-26T08:37:21.836Z,1.30
2018-09-26T08:39:50.362Z,1.10
2018-09-26T08:42:19.019Z,1.27
2018-09-26T08:44:47.585Z,1.10
2018-09-26T08:47:16.258Z,1.20
2018-09-26T08:49:44.926Z,1.40
2018-09-26T08:52:13.542Z,1.40
2018-09-26T08:54:42.263Z,1.27
2018-09-26T08:57:10.930Z,1.30
2018-09-26T08:59:39.921Z,1.30
2018-09-26T09:02:08.566Z,1.90
2018-09-26T09:04:37.226Z,1.30
2018-09-26T09:07:06.005Z,1.60
2018-09-26T09:09:34.805Z,1.40
2018-09-26T09:12:04.162Z,1.50
2018-09-26T09:14:32.928Z,1.40
2018-09-26T09:17:01.454Z,1.30
2018-09-26T09:19:30.078Z,1.30
2018-09-26T09:21:58.617Z,1.87
2018-09-26T09:24:27.229Z,1.40
2018-09-26T09:26:55.811Z,1.70
2018-09-26T09:29:24.379Z,1.57
2018-09-26T09:31:52.894Z,1.40
2018-09-26T09:34:21.489Z,1.40
2018-09-26T09:36:50.069Z,1.30
2018-09-26T09:39:18.500Z,1.37
2018-09-26T09:41:46.935Z,1.57
2018-09-26T09:44:15.495Z,1.50
2018-09-26T09:46:43.943Z,1.23
2018-09-26T09:49:12.427Z,1.43
2018-09-26T09:51:41.047Z,1.57
2018-09-26T09:54:09.595Z,1.70
2018-09-26T09:56:38.074Z,1.33
2018-09-26T09:59:06.701Z,1.90
2018-09-26T10:01:35.197Z,1.20
2018-09-26T10:04:03.668Z,1.10
2018-09-26T10:06:32.162Z,1.40
2018-09-26T10:09:00.748Z,2.40
2018-09-26T10:11:29.269Z,2.37
2018-09-26T10:13:57.707Z,1.40
2018-09-26T10:16:26.159Z,1.80
2018-09-26T10:18:54.661Z,1.90
2018-09-26T10:21:23.392Z,1.30
2018-09-26T10:23:51.860Z,1.50
2018-09-26T10:26:20.321Z,1.30
2018-09-26T10:28:48.797Z,1.33
2018-09-26T10:31:17.261Z,1.70
2018-09-26T10:33:45.749Z,1.60
2018-09-26T10:36:14.261Z,1.60
2018-09-26T10:38:42.866Z,1.98
2018-09-26T10:41:11.450Z,1.72
2018-09-26T10:43:39.967Z,1.42
2018-09-26T10:46:08.996Z,1.25
2018-09-26T10:48:37.477Z,1.50
2018-09-26T10:51:06.173Z,1.70
2018-09-26T10:53:34.615Z,1.52
2018-09-26T10:56:03.211Z,1.40
2018-09-26T10:58:31.712Z,1.85
2018-09-26T11:01:00.415Z,1.70
2018-09-26T11:03:29.197Z,1.62
2018-09-26T11:05:58.086Z,1.70
2018-09-26T11:08:26.734Z,1.40
2018-09-26T11:10:55.296Z,1.75
2018-09-26T11:13:23.973Z,2.25
2018-09-26T11:15:52.728Z,1.22
2018-09-26T11:18:21.355Z,2.35
2018-09-26T11:20:50.098Z,1.27
2018-09-26T11:23:18.656Z,1.70
2018-09-26T11:25:47.131Z,1.67
2018-09-26T11:28:15.917Z,1.95
2018-09-26T11:30:44.447Z,1.22
2018-09-26T11:33:13.028Z,1.80
2018-09-26T11:35:41.683Z,2.12
2018-09-26T11:38:10.310Z,1.80
2018-09-26T11:40:38.896Z,2.20
2018-09-26T11:43:07.510Z,2.02
2018-09-26T11:45:36.037Z,1.92
2018-09-26T11:48:04.578Z,1.70
2018-09-26T11:50:33.125Z,2.33
2018-09-26T11:53:01.724Z,2.30
2018-09-26T11:55:30.262Z,1.92
2018-09-26T11:57:58.978Z,1.72
2018-09-26T12:00:27.556Z,1.50
2018-09-26T12:02:56.202Z,2.12
2018-09-26T12:05:24.818Z,1.65
2018-09-26T12:07:53.444Z,1.50
2018-09-26T12:10:22.146Z,1.65
2018-09-26T12:12:50.649Z,1.95
2018-09-26T12:15:19.351Z,1.75
2018-09-26T12:17:47.950Z,1.60
2018-09-26T12:20:16.790Z,2.22
2018-09-26T12:22:45.396Z,3.90
2018-09-26T12:25:14.167Z,1.85
2018-09-26T12:27:43.764Z,2.10
2018-09-26T12:30:12.695Z,1.65
2018-09-26T12:32:41.419Z,1.30
2018-09-26T12:35:10.406Z,1.80
2018-09-26T12:37:39.164Z,2.27
2018-09-26T12:40:08.570Z,2.03
2018-09-26T12:42:37.623Z,1.50
2018-09-26T12:45:06.465Z,2.10
2018-09-26T12:47:35.232Z,1.50
2018-09-26T12:50:04.342Z,1.60
2018-09-26T12:52:33.225Z,1.50
2018-09-26T12:55:02.045Z,1.77
2018-09-26T12:57:30.694Z,1.50
2018-09-26T12:59:59.883Z,1.63
2018-09-26T13:02:28.792Z,1.77
2018-09-26T13:04:59.380Z,1.83
2018-09-26T13:07:28.004Z,1.70
2018-09-26T13:09:56.860Z,1.80
2018-09-26T13:12:25.672Z,1.73
2018-09-26T13:14:54.325Z,1.67
2018-09-26T13:17:23.109Z,1.73
2018-09-26T13:19:52.085Z,1.33
2018-09-26T13:22:21.009Z,1.50
2018-09-26T13:24:49.673Z,1.50
2018-09-26T13:27:18.840Z,1.67
2018-09-26T13:29:47.904Z,1.37
2018-09-26T13:32:17.400Z,1.43
2018-09-26T13:34:46.217Z,1.40
2018-09-26T13:37:14.967Z,1.33
2018-09-26T13:39:43.701Z,1.20
2018-09-26T13:42:12.651Z,1.73
2018-09-26T13:44:41.391Z,1.80
2018-09-26T13:47:10.233Z,1.67
2018-09-26T13:49:38.995Z,2.00
2018-09-26T13:52:07.778Z,2.33
2018-09-26T13:54:37.027Z,1.77
2018-09-26T13:57:05.917Z,1.80
2018-09-26T13:59:34.807Z,2.10
2018-09-26T14:02:03.490Z,1.60
2018-09-26T14:04:32.220Z,1.67
2018-09-26T14:07:00.944Z,2.30
2018-09-26T14:09:29.632Z,1.60
2018-09-26T14:11:58.366Z,1.67
2018-09-26T14:14:27.150Z,2.00
2018-09-26T14:16:55.769Z,1.87
2018-09-26T14:19:30.061Z,1.90
2018-09-26T14:21:58.986Z,1.60
2018-09-26T14:24:27.890Z,1.93
2018-09-26T14:26:56.753Z,2.40
2018-09-26T14:29:25.741Z,2.13
2018-09-26T14:31:54.548Z,1.83
2018-09-26T14:34:23.246Z,1.87
2018-09-26T14:36:52.237Z,1.80
2018-09-26T14:39:21.226Z,1.73
2018-09-26T14:41:49.916Z,1.53
2018-09-26T14:44:18.667Z,1.40
2018-09-26T14:46:47.478Z,1.47
2018-09-26T14:49:16.365Z,1.60
2018-09-26T14:51:46.204Z,1.67
2018-09-26T14:54:15.152Z,1.40
2018-09-26T14:56:43.839Z,1.63
2018-09-26T14:59:12.845Z,1.27
2018-09-26T15:01:41.638Z,2.13
2018-09-26T15:04:10.379Z,1.50
2018-09-26T15:06:39.400Z,1.30
2018-09-26T15:09:08.192Z,1.63
2018-09-26T15:11:36.964Z,1.97
2018-09-26T15:14:05.775Z,1.53
2018-09-26T15:16:34.570Z,1.60
2018-09-26T15:19:03.441Z,1.67
2018-09-26T15:21:32.197Z,1.60
2018-09-26T15:24:01.056Z,1.60
2018-09-26T15:26:30.221Z,1.50
2018-09-26T15:28:58.929Z,1.57
2018-09-26T15:31:27.832Z,2.10
2018-09-26T15:33:56.667Z,2.10
2018-09-26T15:36:25.778Z,1.83
2018-09-26T15:38:54.706Z,2.17
2018-09-26T15:41:23.644Z,2.13
2018-09-26T15:43:53.022Z,2.00
2018-09-26T15:46:22.017Z,1.83
2018-09-26T15:48:50.953Z,2.20
2018-09-26T15:51:19.857Z,2.33
2018-09-26T15:53:48.394Z,1.90
2018-09-26T15:56:17.098Z,2.10
2018-09-26T15:58:45.757Z,1.97
2018-09-26T16:01:14.709Z,2.10
2018-09-26T16:03:48.770Z,2.07
2018-09-26T16:06:17.920Z,2.07
2018-09-26T16:08:46.501Z,2.27
2018-09-26T16:11:15.129Z,2.03
2018-09-26T16:13:43.673Z,2.40
2018-09-26T16:16:12.334Z,2.07
2018-09-26T16:18:40.926Z,2.60
2018-09-26T16:21:09.620Z,2.20
2018-09-26T16:23:38.200Z,2.23
2018-09-26T16:26:06.856Z,2.30
2018-09-26T16:28:35.785Z,2.30
2018-09-26T16:31:04.441Z,3.80
2018-09-26T16:33:33.173Z,3.13
2018-09-26T16:36:01.807Z,2.73
2018-09-26T16:38:30.452Z,2.57
2018-09-26T16:40:59.224Z,3.30
2018-09-26T16:43:27.951Z,2.57
2018-09-26T16:45:56.606Z,2.70
2018-09-26T16:48:25.600Z,2.27
2018-09-26T16:50:54.277Z,1.93
2018-09-26T16:53:22.886Z,2.13
2018-09-26T16:55:51.650Z,2.37
2018-09-26T16:58:20.490Z,1.73
2018-09-26T17:00:49.307Z,1.77
2018-09-26T17:03:18.007Z,1.80
2018-09-26T17:05:46.723Z,2.00
2018-09-26T17:08:15.377Z,1.80
2018-09-26T17:10:43.934Z,1.67
2018-09-26T17:13:12.549Z,4.43
2018-09-26T17:15:41.178Z,2.10
2018-09-26T17:18:09.863Z,1.70
2018-09-26T17:20:38.677Z,1.93
2018-09-26T17:23:07.258Z,1.73
2018-09-26T17:25:35.908Z,2.10
2018-09-26T17:28:04.572Z,2.00
2018-09-26T17:30:34.009Z,2.30
2018-09-26T17:33:02.861Z,1.77
2018-09-26T17:35:32.002Z,2.10
2018-09-26T17:38:00.875Z,1.60
2018-09-26T17:40:29.560Z,1.90
2018-09-26T17:42:58.305Z,2.27
2018-09-26T17:45:26.954Z,2.30
2018-09-26T17:47:55.694Z,2.80
2018-09-26T17:50:24.542Z,2.57
2018-09-26T17:52:53.366Z,2.07
2018-09-26T17:55:22.124Z,2.10
2018-09-26T17:57:51.047Z,4.23
2018-09-26T18:00:19.924Z,2.20
2018-09-26T18:02:49.715Z,2.30
2018-09-26T18:05:19.047Z,2.07
2018-09-26T18:07:48.588Z,3.10
2018-09-26T18:10:17.306Z,2.90
2018-09-26T18:12:46.394Z,2.70
2018-09-26T18:15:15.088Z,2.77
2018-09-26T18:17:43.789Z,4.10
2018-09-26T18:20:12.391Z,4.30
2018-09-26T18:22:41.338Z,3.70
2018-09-26T18:25:10.338Z,5.60
2018-09-26T18:27:39.198Z,4.10
2018-09-26T18:30:07.932Z,3.87
2018-09-26T18:32:36.460Z,4.17
2018-09-26T18:35:05.382Z,3.60
2018-09-26T18:37:34.181Z,3.73
2018-09-26T18:40:02.999Z,5.67
2018-09-26T18:42:31.987Z,3.97
2018-09-26T18:45:02.238Z,3.63
2018-09-26T18:47:30.920Z,3.50
2018-09-26T18:50:00.033Z,5.67
2018-09-26T18:52:28.925Z,4.20
2018-09-26T18:55:01.725Z,3.60
2018-09-26T18:57:30.408Z,4.20
2018-09-26T18:59:59.081Z,4.20
2018-09-26T19:02:27.779Z,4.10
2018-09-26T19:04:56.909Z,4.67
2018-09-26T19:07:25.522Z,4.50
2018-09-26T19:09:54.153Z,5.87
2018-09-26T19:12:22.872Z,11.17
2018-09-26T19:14:51.828Z,5.67
2018-09-26T19:17:20.446Z,4.33
2018-09-26T19:19:49.090Z,4.90
2018-09-26T19:22:17.855Z,5.27
2018-09-26T19:24:46.617Z,4.43
2018-09-26T19:27:15.398Z,5.07
2018-09-26T19:29:44.160Z,5.20
2018-09-26T19:32:12.752Z,4.37
2018-09-26T19:34:41.312Z,4.83
2018-09-26T19:37:09.897Z,4.73
2018-09-26T19:39:38.451Z,5.17
2018-09-26T19:42:07.113Z,4.30
2018-09-26T19:44:35.598Z,4.70
2018-09-26T19:47:04.128Z,4.87
2018-09-26T19:49:32.756Z,4.57
2018-09-26T19:52:01.398Z,7.03
2018-09-26T19:54:29.936Z,4.97
2018-09-26T19:56:58.704Z,5.10
2018-09-26T19:59:27.432Z,5.37
2018-09-26T20:01:56.113Z,7.37
2018-09-26T20:04:24.722Z,3.37
2018-09-26T20:06:53.391Z,2.97
2018-09-26T20:09:21.948Z,3.30
2018-09-26T20:11:50.548Z,4.30
2018-09-26T20:14:19.170Z,3.93
2018-09-26T20:16:47.789Z,3.60
2018-09-26T20:19:16.370Z,4.10
2018-09-26T20:21:45.008Z,5.03
2018-09-26T20:24:13.694Z,4.97
2018-09-26T20:26:42.313Z,5.63
2018-09-26T20:29:10.901Z,4.87
2018-09-26T20:31:39.442Z,5.40
2018-09-26T20:34:08.232Z,5.00
2018-09-26T20:36:36.787Z,4.87
2018-09-26T20:39:08.420Z,5.77
2018-09-26T20:41:37.136Z,5.60
2018-09-26T20:44:05.776Z,7.30
2018-09-26T20:46:34.493Z,5.63
2018-09-26T20:49:03.162Z,5.57
2018-09-26T20:51:32.082Z,5.20
2018-09-26T20:54:00.716Z,3.63
2018-09-26T20:56:29.305Z,4.63
2018-09-26T20:58:57.950Z,4.63
2018-09-26T21:01:26.550Z,4.67
2018-09-26T21:03:55.156Z,5.37
2018-09-26T21:06:23.876Z,5.20
2018-09-26T21:08:52.533Z,5.37
2018-09-26T21:11:21.320Z,5.47
2018-09-26T21:13:49.931Z,5.20
2018-09-26T21:16:18.568Z,5.30
2018-09-26T21:18:47.220Z,5.60
2018-09-26T21:21:15.851Z,5.70
2018-09-26T21:23:44.537Z,5.60
2018-09-26T21:26:13.160Z,5.50
2018-09-26T21:28:41.748Z,5.00
2018-09-26T21:31:10.454Z,5.90
2018-09-26T21:33:39.146Z,5.50
2018-09-26T21:36:07.720Z,5.43
2018-09-26T21:38:36.444Z,4.17
2018-09-26T21:41:05.069Z,4.83
2018-09-26T21:43:33.827Z,4.00
2018-09-26T21:46:02.536Z,4.40
2018-09-26T21:48:31.060Z,5.50
2018-09-26T21:50:59.779Z,5.27
2018-09-26T21:53:28.457Z,5.27
2018-09-26T21:55:57.019Z,4.37
2018-09-26T21:58:25.568Z,5.60
2018-09-26T22:00:59.533Z,4.90
2018-09-26T22:03:28.151Z,4.70
2018-09-26T22:05:56.710Z,3.70
2018-09-26T22:08:25.317Z,4.67
2018-09-26T22:10:53.907Z,4.17
2018-09-26T22:13:23.052Z,4.30
2018-09-26T22:15:51.992Z,4.10
2018-09-26T22:18:20.928Z,4.70
2018-09-26T22:20:49.599Z,4.80
2018-09-26T22:23:18.503Z,4.33
2018-09-26T22:25:47.325Z,4.00
2018-09-26T22:28:15.942Z,4.30
2018-09-26T22:30:45.518Z,4.07
2018-09-26T22:33:14.341Z,4.60
2018-09-26T22:35:43.103Z,4.70
2018-09-26T22:38:11.964Z,4.53
2018-09-26T22:40:40.766Z,4.30
2018-09-26T22:43:09.607Z,4.20
2018-09-26T22:45:38.440Z,4.50
2018-09-26T22:48:07.276Z,4.53
2018-09-26T22:50:36.056Z,4.20
2018-09-26T22:53:04.820Z,3.57
2018-09-26T22:55:33.441Z,4.37
2018-09-26T22:58:02.136Z,4.30
2018-09-26T23:00:30.763Z,4.10
2018-09-26T23:02:59.462Z,4.37
2018-09-26T23:05:28.209Z,4.00
2018-09-26T23:07:56.925Z,4.10
2018-09-26T23:10:25.570Z,3.90
2018-09-26T23:12:54.185Z,3.90
2018-09-26T23:15:22.997Z,3.77
2018-09-26T23:17:51.580Z,3.80
2018-09-26T23:20:20.305Z,3.70
2018-09-26T23:22:49.031Z,3.70
2018-09-26T23:25:17.763Z,3.73
2018-09-26T23:27:46.639Z,4.07
2018-09-26T23:30:15.287Z,6.00
2018-09-26T23:32:43.882Z,5.07
2018-09-26T23:35:12.488Z,3.97
2018-09-26T23:37:41.097Z,4.27
2018-09-26T23:40:09.676Z,3.97
2018-09-26T23:42:38.197Z,3.87
2018-09-26T23:45:06.866Z,3.40
2018-09-26T23:47:35.435Z,4.07
2018-09-26T23:50:04.071Z,4.30
2018-09-26T23:52:32.662Z,4.27
2018-09-26T23:55:01.216Z,3.50
2018-09-26T23:57:29.790Z,3.90
2018-09-26T23:59:58.304Z,3.17
